createdAt,value
2022-08-26T00:01:55.148Z,13.54
2022-08-26T00:04:25.974Z,13.56
2022-08-26T00:06:55.988Z,13.65
2022-08-26T00:09:24.750Z,13.72
2022-08-26T00:11:52.388Z,13.76
2022-08-26T00:14:19.396Z,13.68
2022-08-26T00:16:48.103Z,13.48
2022-08-26T00:19:18.081Z,13.17
2022-08-26T00:21:46.101Z,13.22
2022-08-26T00:24:13.417Z,13.26
2022-08-26T00:26:41.509Z,13.20
2022-08-26T00:29:09.369Z,13.34
2022-08-26T00:31:36.395Z,13.10
2022-08-26T00:34:04.364Z,13.22
2022-08-26T00:36:31.963Z,13.32
2022-08-26T00:38:59.183Z,13.16
2022-08-26T00:41:25.971Z,13.05
2022-08-26T00:43:53.214Z,12.56
2022-08-26T00:46:24.389Z,12.40
2022-08-26T00:49:04.429Z,12.51
2022-08-26T00:51:54.689Z,12.51
2022-08-26T00:54:26.984Z,12.61
2022-08-26T00:56:59.911Z,12.56
2022-08-26T00:59:29.358Z,12.49
2022-08-26T01:02:00.516Z,12.42
2022-08-26T01:04:30.983Z,12.39
2022-08-26T01:06:57.955Z,12.30
2022-08-26T01:09:24.902Z,12.45
2022-08-26T01:11:56.216Z,12.39
2022-08-26T01:14:25.155Z,12.43
2022-08-26T01:16:52.418Z,12.24
2022-08-26T01:19:24.174Z,12.44
2022-08-26T01:22:03.915Z,12.46
2022-08-26T01:24:31.232Z,12.47
2022-08-26T01:27:02.637Z,12.41
2022-08-26T01:29:30.207Z,12.11
2022-08-26T01:31:58.246Z,11.72
2022-08-26T01:34:30.758Z,11.91
2022-08-26T01:37:13.695Z,11.96
2022-08-26T01:39:44.450Z,11.82
2022-08-26T01:42:14.198Z,11.95
2022-08-26T01:44:48.135Z,11.85
2022-08-26T01:47:16.726Z,11.66
2022-08-26T01:49:46.782Z,11.93
2022-08-26T01:52:17.646Z,12.18
2022-08-26T01:54:46.209Z,12.10
2022-08-26T01:57:19.343Z,12.19
2022-08-26T01:59:47.326Z,12.06
2022-08-26T02:02:14.202Z,12.12
2022-08-26T02:04:48.692Z,12.06
2022-08-26T02:07:18.473Z,12.08
2022-08-26T02:09:48.597Z,12.07
2022-08-26T02:12:17.486Z,12.08
2022-08-26T02:14:50.202Z,11.88
2022-08-26T02:17:21.264Z,11.46
2022-08-26T02:19:50.265Z,11.21
2022-08-26T02:22:20.872Z,11.14
2022-08-26T02:25:01.021Z,11.37
2022-08-26T02:27:32.801Z,11.37
2022-08-26T02:30:32.053Z,11.34
2022-08-26T02:33:00.192Z,11.20
2022-08-26T02:35:27.130Z,11.35
2022-08-26T02:37:54.107Z,11.45
2022-08-26T02:40:24.261Z,11.46
2022-08-26T02:42:53.077Z,11.29
2022-08-26T02:45:23.180Z,11.13
2022-08-26T02:47:51.541Z,11.10
2022-08-26T02:50:20.527Z,11.28
2022-08-26T02:52:48.565Z,11.21
2022-08-26T02:55:15.938Z,11.26
2022-08-26T02:57:43.309Z,11.24
2022-08-26T03:00:13.102Z,11.06
2022-08-26T03:02:40.218Z,11.04
2022-08-26T03:05:07.758Z,11.01
2022-08-26T03:07:34.636Z,10.99
2022-08-26T03:10:01.426Z,10.84
2022-08-26T03:12:35.824Z,10.80
2022-08-26T03:15:03.320Z,10.75
2022-08-26T03:17:45.904Z,10.82
2022-08-26T03:20:13.754Z,10.82
2022-08-26T03:22:42.826Z,11.01
2022-08-26T03:25:12.323Z,11.02
2022-08-26T03:27:39.343Z,11.07
2022-08-26T03:30:25.669Z,11.00
2022-08-26T03:32:53.563Z,11.01
2022-08-26T03:35:20.457Z,11.06
2022-08-26T03:37:49.456Z,10.71
2022-08-26T03:40:16.442Z,10.69
2022-08-26T03:42:47.836Z,10.61
2022-08-26T03:45:16.789Z,10.79
2022-08-26T03:47:45.961Z,10.92
2022-08-26T03:50:17.796Z,10.95
2022-08-26T03:52:51.599Z,10.88
2022-08-26T03:55:19.228Z,10.78
2022-08-26T03:57:50.831Z,10.49
2022-08-26T04:00:18.544Z,10.81
2022-08-26T04:02:48.837Z,10.65
2022-08-26T04:05:17.629Z,10.95
2022-08-26T04:07:46.418Z,11.04
2022-08-26T04:10:20.365Z,10.79
2022-08-26T04:12:47.408Z,10.98
2022-08-26T04:15:16.634Z,11.01
2022-08-26T04:17:44.802Z,11.20
2022-08-26T04:20:14.058Z,11.21
2022-08-26T04:22:43.301Z,11.12
2022-08-26T04:25:10.737Z,11.23
2022-08-26T04:27:37.739Z,11.23
2022-08-26T04:30:07.776Z,11.07
2022-08-26T04:32:35.923Z,10.95
2022-08-26T04:35:03.719Z,10.66
2022-08-26T04:37:32.038Z,10.85
2022-08-26T04:39:59.816Z,11.06
2022-08-26T04:42:27.109Z,11.26
2022-08-26T04:44:54.118Z,11.28
2022-08-26T04:47:21.462Z,11.23
2022-08-26T04:49:48.409Z,11.30
2022-08-26T04:52:15.456Z,11.40
2022-08-26T04:54:42.963Z,11.36
2022-08-26T04:57:10.690Z,11.17
2022-08-26T04:59:39.438Z,11.29
2022-08-26T05:02:07.204Z,11.21
2022-08-26T05:04:34.616Z,11.23
2022-08-26T05:07:02.896Z,11.12
2022-08-26T05:09:30.482Z,11.06
2022-08-26T05:11:57.513Z,11.31
2022-08-26T05:14:24.341Z,11.42
2022-08-26T05:16:51.449Z,11.48
2022-08-26T05:19:19.115Z,11.46
2022-08-26T05:21:47.819Z,11.21
2022-08-26T05:24:15.237Z,11.33
2022-08-26T05:26:42.368Z,11.24
2022-08-26T05:29:11.727Z,11.16
2022-08-26T05:31:38.609Z,11.20
2022-08-26T05:34:05.970Z,11.30
2022-08-26T05:36:35.328Z,11.43
2022-08-26T05:39:03.890Z,11.49
2022-08-26T05:41:36.558Z,11.56
2022-08-26T05:44:07.985Z,11.47
2022-08-26T05:46:36.691Z,11.54
2022-08-26T05:49:06.107Z,11.61
2022-08-26T05:51:45.270Z,11.64
2022-08-26T05:54:13.376Z,11.65
2022-08-26T05:56:40.538Z,11.48
2022-08-26T05:59:14.280Z,11.61
2022-08-26T06:01:41.964Z,11.77
2022-08-26T06:04:08.870Z,11.84
2022-08-26T06:06:37.090Z,11.86
2022-08-26T06:09:07.179Z,11.96
2022-08-26T06:11:38.903Z,11.96
2022-08-26T06:14:06.969Z,12.07
2022-08-26T06:16:38.351Z,12.05
2022-08-26T06:19:10.707Z,11.95
2022-08-26T06:21:40.182Z,12.05
2022-08-26T06:24:31.047Z,12.05
2022-08-26T06:27:01.633Z,12.10
2022-08-26T06:29:31.452Z,12.09
2022-08-26T06:31:58.567Z,12.12
2022-08-26T06:34:30.335Z,12.18
2022-08-26T06:36:59.835Z,12.24
2022-08-26T06:39:30.864Z,12.27
2022-08-26T06:41:59.121Z,12.35
2022-08-26T06:44:26.894Z,12.24
2022-08-26T06:46:53.964Z,12.27
2022-08-26T06:49:26.852Z,12.40
2022-08-26T06:51:58.543Z,12.35
2022-08-26T06:54:26.831Z,12.30
2022-08-26T06:56:53.914Z,12.44
2022-08-26T06:59:21.914Z,12.54
2022-08-26T07:01:49.656Z,12.65
2022-08-26T07:04:22.206Z,12.64
2022-08-26T07:06:52.446Z,12.77
2022-08-26T07:09:21.893Z,12.83
2022-08-26T07:11:51.418Z,12.84
2022-08-26T07:14:21.537Z,13.06
2022-08-26T07:16:52.039Z,12.96
2022-08-26T07:19:31.052Z,13.01
2022-08-26T07:22:03.469Z,13.03
2022-08-26T07:24:32.187Z,13.02
2022-08-26T07:27:06.875Z,13.10
2022-08-26T07:29:36.827Z,12.97
2022-08-26T07:32:04.046Z,13.09
2022-08-26T07:34:33.314Z,13.06
2022-08-26T07:37:00.635Z,13.04
2022-08-26T07:39:28.480Z,13.07
2022-08-26T07:42:00.113Z,13.10
2022-08-26T07:44:27.911Z,13.09
2022-08-26T07:46:54.842Z,13.11
2022-08-26T07:49:26.869Z,13.13
2022-08-26T07:51:55.603Z,13.11
2022-08-26T07:54:27.058Z,13.51
2022-08-26T07:56:54.710Z,13.43
2022-08-26T07:59:23.431Z,13.39
2022-08-26T08:01:50.671Z,13.49
2022-08-26T08:04:20.094Z,13.58
2022-08-26T08:06:52.518Z,13.73
2022-08-26T08:09:19.353Z,13.63
2022-08-26T08:11:49.704Z,13.66
2022-08-26T08:14:18.489Z,13.76
2022-08-26T08:16:51.254Z,13.86
2022-08-26T08:19:23.790Z,13.97
2022-08-26T08:21:50.808Z,14.10
2022-08-26T08:24:18.245Z,14.04
2022-08-26T08:26:46.078Z,14.18
2022-08-26T08:29:13.250Z,14.24
2022-08-26T08:31:58.023Z,14.27
2022-08-26T08:34:27.216Z,14.44
2022-08-26T08:36:54.596Z,14.52
2022-08-26T08:39:22.392Z,14.65
2022-08-26T08:42:23.659Z,14.71
2022-08-26T08:44:52.118Z,14.85
2022-08-26T08:47:34.558Z,14.70
2022-08-26T08:50:44.360Z,14.76
2022-08-26T08:53:23.227Z,14.86
2022-08-26T08:56:02.658Z,14.93
2022-08-26T08:58:57.344Z,15.00
2022-08-26T09:01:48.076Z,15.09
2022-08-26T09:04:46.770Z,15.08
2022-08-26T09:16:46.981Z,15.52
2022-08-26T09:19:40.466Z,15.66
2022-08-26T09:22:09.646Z,15.64
2022-08-26T09:24:41.639Z,15.65
2022-08-26T09:27:11.498Z,15.79
2022-08-26T09:29:43.178Z,16.07
2022-08-26T09:32:21.290Z,15.91
2022-08-26T09:34:57.883Z,16.27
2022-08-26T09:40:22.759Z,16.18
2022-08-26T09:43:22.315Z,16.43
2022-08-26T09:45:59.540Z,16.39
2022-08-26T09:48:36.031Z,16.43
2022-08-26T09:51:27.051Z,16.40
2022-08-26T09:53:59.926Z,16.51
2022-08-26T09:56:30.000Z,16.40
2022-08-26T09:58:57.472Z,16.37
2022-08-26T10:01:24.354Z,16.20
2022-08-26T10:03:51.554Z,16.43
2022-08-26T10:06:21.032Z,16.28
2022-08-26T10:11:53.753Z,16.59
2022-08-26T10:14:25.499Z,16.94
2022-08-26T10:17:22.146Z,17.13
2022-08-26T10:19:57.217Z,17.22
2022-08-26T10:22:26.438Z,17.43
2022-08-26T10:24:57.728Z,17.58
2022-08-26T10:27:27.255Z,17.71
2022-08-26T10:30:00.382Z,17.49
2022-08-26T10:32:41.333Z,17.31
2022-08-26T10:35:12.444Z,17.04
2022-08-26T10:37:47.339Z,17.07
2022-08-26T10:40:25.010Z,17.27
2022-08-26T10:42:58.668Z,17.38
2022-08-26T10:45:30.425Z,17.55
2022-08-26T10:48:00.304Z,17.67
2022-08-26T10:50:33.802Z,17.77
2022-08-26T10:53:17.276Z,17.84
2022-08-26T10:55:49.974Z,17.93
2022-08-26T10:58:49.747Z,17.87
2022-08-26T11:01:43.418Z,18.12
2022-08-26T11:04:19.470Z,18.36
2022-08-26T11:06:49.659Z,18.11
2022-08-26T11:09:46.536Z,18.40
2022-08-26T11:12:35.388Z,18.50
2022-08-26T11:15:07.266Z,18.30
2022-08-26T11:18:11.455Z,18.41
2022-08-26T11:20:45.960Z,18.35
2022-08-26T11:23:16.819Z,18.56
2022-08-26T11:26:02.055Z,18.45
2022-08-26T11:28:37.418Z,18.76
2022-08-26T11:31:08.757Z,18.83
2022-08-26T11:33:59.931Z,18.96
2022-08-26T11:36:41.009Z,19.25
2022-08-26T11:39:16.823Z,19.66
2022-08-26T11:41:45.214Z,19.80
2022-08-26T11:44:17.768Z,20.00
2022-08-26T11:46:59.640Z,19.94
2022-08-26T11:49:32.271Z,20.19
2022-08-26T11:52:20.936Z,20.06
2022-08-26T11:55:03.030Z,20.13
2022-08-26T11:57:33.095Z,20.33
2022-08-26T12:00:01.442Z,20.28
2022-08-26T12:02:28.479Z,20.38
2022-08-26T12:04:56.557Z,20.31
2022-08-26T12:07:27.710Z,20.35
2022-08-26T12:09:58.703Z,20.25
2022-08-26T12:12:34.516Z,20.05
2022-08-26T12:15:22.832Z,20.23
2022-08-26T12:17:54.520Z,19.98
2022-08-26T12:20:48.666Z,19.99
2022-08-26T12:23:36.431Z,19.80
2022-08-26T12:26:15.491Z,19.92
2022-08-26T12:28:49.033Z,19.92
2022-08-26T12:31:22.680Z,19.73
2022-08-26T12:33:50.177Z,19.87
2022-08-26T12:36:23.502Z,20.09
2022-08-26T12:38:50.596Z,20.01
2022-08-26T12:41:39.391Z,19.76
2022-08-26T12:44:06.320Z,19.75
2022-08-26T12:46:33.303Z,19.80
2022-08-26T12:49:03.505Z,19.82
2022-08-26T12:51:32.600Z,19.73
2022-08-26T12:53:59.558Z,19.98
2022-08-26T12:56:39.100Z,20.11
2022-08-26T12:59:19.807Z,20.33
2022-08-26T13:01:47.083Z,20.91
2022-08-26T13:04:44.211Z,21.29
2022-08-26T13:07:23.722Z,21.17
2022-08-26T13:09:57.499Z,21.06
2022-08-26T13:12:32.936Z,20.94
2022-08-26T13:15:01.216Z,21.22
2022-08-26T13:17:29.415Z,20.75
2022-08-26T13:20:00.113Z,20.45
2022-08-26T13:22:29.856Z,20.42
2022-08-26T13:24:57.325Z,20.41
2022-08-26T13:27:26.525Z,20.36
2022-08-26T13:29:54.226Z,20.28
2022-08-26T13:32:26.116Z,20.63
2022-08-26T13:34:55.728Z,20.45
2022-08-26T13:37:24.519Z,20.64
2022-08-26T13:40:07.233Z,20.55
2022-08-26T13:42:34.494Z,20.46
2022-08-26T13:45:01.770Z,21.03
2022-08-26T13:47:28.868Z,22.10
2022-08-26T13:49:56.441Z,23.41
2022-08-26T13:52:29.162Z,24.11
2022-08-26T13:54:57.378Z,23.45
2022-08-26T13:57:24.807Z,22.79
2022-08-26T13:59:53.961Z,22.81
2022-08-26T14:02:20.853Z,23.13
2022-08-26T14:04:47.768Z,22.23
2022-08-26T14:07:14.929Z,21.87
2022-08-26T14:09:41.772Z,21.26
2022-08-26T14:12:08.768Z,20.78
2022-08-26T14:14:35.552Z,20.35
2022-08-26T14:17:02.576Z,20.39
2022-08-26T14:19:30.467Z,20.03
2022-08-26T14:21:57.503Z,19.60
2022-08-26T14:24:24.416Z,19.57
2022-08-26T14:26:51.146Z,19.63
2022-08-26T14:29:17.981Z,19.70
2022-08-26T14:31:45.465Z,19.58
2022-08-26T14:34:13.279Z,19.77
2022-08-26T14:36:40.064Z,19.55
2022-08-26T14:39:12.713Z,19.54
2022-08-26T14:41:53.938Z,19.74
2022-08-26T14:44:22.592Z,19.45
2022-08-26T14:46:51.191Z,19.70
2022-08-26T14:49:19.411Z,19.66
2022-08-26T14:51:46.411Z,19.65
2022-08-26T14:54:17.336Z,19.77
2022-08-26T14:57:13.596Z,20.23
2022-08-26T14:59:43.444Z,20.59
2022-08-26T15:02:27.785Z,20.63
2022-08-26T15:05:02.199Z,20.80
2022-08-26T15:07:29.023Z,20.64
2022-08-26T15:09:56.028Z,20.52
2022-08-26T15:12:23.115Z,21.02
2022-08-26T15:14:49.917Z,20.71
2022-08-26T15:17:27.428Z,20.68
2022-08-26T15:19:54.345Z,21.10
2022-08-26T15:22:21.281Z,21.91
2022-08-26T15:24:48.221Z,22.84
2022-08-26T15:27:21.108Z,24.45
2022-08-26T15:29:47.903Z,23.79
2022-08-26T15:32:14.753Z,22.90
2022-08-26T15:34:41.539Z,22.71
2022-08-26T15:37:09.689Z,21.72
2022-08-26T15:39:36.494Z,21.75
2022-08-26T15:42:04.024Z,21.08
2022-08-26T15:44:30.819Z,21.07
2022-08-26T15:46:58.870Z,20.68
2022-08-26T15:49:26.527Z,20.57
2022-08-26T15:51:53.540Z,20.52
2022-08-26T15:54:22.301Z,20.18
2022-08-26T15:56:51.710Z,19.82
2022-08-26T15:59:19.867Z,19.56
2022-08-26T16:01:48.425Z,19.46
2022-08-26T16:04:15.378Z,19.16
2022-08-26T16:06:43.525Z,19.25
2022-08-26T16:09:11.107Z,19.23
2022-08-26T16:11:38.064Z,19.02
2022-08-26T16:14:05.823Z,18.84
2022-08-26T16:16:32.882Z,18.58
2022-08-26T16:19:01.280Z,18.34
2022-08-26T16:21:31.893Z,18.37
2022-08-26T16:23:58.846Z,18.00
2022-08-26T16:26:33.155Z,17.82
2022-08-26T16:29:08.602Z,18.05
2022-08-26T16:31:36.319Z,17.88
2022-08-26T16:34:03.191Z,18.03
2022-08-26T16:36:30.058Z,17.88
2022-08-26T16:38:56.903Z,17.93
2022-08-26T16:41:26.325Z,17.85
2022-08-26T16:43:53.948Z,17.63
2022-08-26T16:46:23.664Z,17.50
2022-08-26T16:48:50.662Z,17.42
2022-08-26T16:51:19.621Z,16.94
2022-08-26T16:53:46.453Z,16.89
2022-08-26T16:56:14.854Z,16.70
2022-08-26T16:58:41.766Z,16.72
2022-08-26T17:01:09.636Z,16.62
2022-08-26T17:03:36.638Z,16.62
2022-08-26T17:06:03.523Z,16.83
2022-08-26T17:08:30.470Z,16.71
2022-08-26T17:11:00.401Z,16.63
2022-08-26T17:13:35.529Z,16.57
2022-08-26T17:16:05.041Z,16.87
2022-08-26T17:18:33.480Z,16.56
2022-08-26T17:21:06.227Z,16.68
2022-08-26T17:23:33.263Z,16.58
2022-08-26T17:26:00.147Z,16.66
2022-08-26T17:28:27.046Z,16.68
2022-08-26T17:30:56.290Z,16.45
2022-08-26T17:33:24.716Z,16.69
2022-08-26T17:35:53.034Z,16.68
2022-08-26T17:38:21.421Z,16.83
2022-08-26T17:40:48.276Z,16.90
2022-08-26T17:43:15.185Z,16.58
2022-08-26T17:45:42.009Z,16.52
2022-08-26T17:48:10.662Z,16.50
2022-08-26T17:50:39.687Z,16.22
2022-08-26T17:53:06.495Z,16.44
2022-08-26T17:55:33.388Z,16.50
2022-08-26T17:58:00.304Z,16.68
2022-08-26T18:00:30.814Z,16.36
2022-08-26T18:02:58.231Z,16.20
2022-08-26T18:05:25.293Z,16.04
2022-08-26T18:07:52.431Z,16.04
2022-08-26T18:10:20.395Z,16.25
2022-08-26T18:12:47.705Z,16.02
2022-08-26T18:15:16.257Z,16.16
2022-08-26T18:17:43.330Z,16.17
2022-08-26T18:20:13.158Z,16.28
2022-08-26T18:22:40.302Z,16.18
2022-08-26T18:25:08.470Z,16.05
2022-08-26T18:27:36.175Z,16.04
2022-08-26T18:30:05.852Z,15.93
2022-08-26T18:32:32.755Z,15.99
2022-08-26T18:34:59.809Z,15.78
2022-08-26T18:37:29.469Z,15.85
2022-08-26T18:39:59.583Z,16.10
2022-08-26T18:42:27.263Z,15.73
2022-08-26T18:44:54.294Z,15.79
2022-08-26T18:47:21.247Z,15.73
2022-08-26T18:49:48.686Z,15.49
2022-08-26T18:52:15.646Z,15.43
2022-08-26T18:54:43.258Z,15.42
2022-08-26T18:57:10.271Z,15.42
2022-08-26T18:59:37.041Z,15.44
2022-08-26T19:02:04.100Z,15.38
2022-08-26T19:04:31.101Z,15.39
2022-08-26T19:06:57.970Z,15.38
2022-08-26T19:09:26.435Z,15.23
2022-08-26T19:14:21.247Z,15.27
2022-08-26T19:16:49.903Z,15.14
2022-08-26T19:19:17.236Z,15.21
2022-08-26T19:21:44.261Z,15.25
2022-08-26T19:24:15.702Z,15.21
2022-08-26T19:26:44.116Z,15.11
2022-08-26T19:29:11.281Z,15.08
2022-08-26T19:31:38.104Z,15.05
2022-08-26T19:34:05.458Z,15.15
2022-08-26T19:36:32.824Z,14.96
2022-08-26T19:39:00.357Z,15.09
2022-08-26T19:41:37.297Z,15.19
2022-08-26T19:44:12.891Z,15.00
2022-08-26T19:46:40.301Z,14.87
2022-08-26T19:49:07.451Z,15.10
2022-08-26T19:51:36.470Z,15.01
2022-08-26T19:54:03.683Z,15.00
2022-08-26T19:56:30.599Z,14.92
2022-08-26T19:58:57.602Z,14.86
2022-08-26T20:01:24.758Z,14.98
2022-08-26T20:03:51.774Z,14.93
2022-08-26T20:06:18.782Z,14.89
2022-08-26T20:08:46.265Z,14.85
2022-08-26T20:11:15.932Z,14.72
2022-08-26T20:13:43.931Z,14.88
2022-08-26T20:16:12.048Z,14.90
2022-08-26T20:19:01.633Z,14.92
2022-08-26T20:21:30.548Z,14.99
2022-08-26T20:23:59.369Z,14.87
2022-08-26T20:26:28.886Z,14.82
2022-08-26T20:28:56.659Z,14.87
2022-08-26T20:31:24.291Z,14.78
2022-08-26T20:33:51.769Z,14.88
2022-08-26T20:36:20.661Z,14.99
2022-08-26T20:38:48.344Z,14.92
2022-08-26T20:41:15.480Z,14.90
2022-08-26T20:43:42.898Z,15.02
2022-08-26T20:46:18.076Z,15.04
2022-08-26T20:48:47.539Z,15.07
2022-08-26T20:51:15.454Z,14.98
2022-08-26T20:53:42.621Z,15.00
2022-08-26T20:56:10.631Z,15.07
2022-08-26T20:58:38.708Z,14.95
2022-08-26T21:01:08.191Z,15.03
2022-08-26T21:03:36.425Z,15.19
2022-08-26T21:06:03.989Z,15.10
2022-08-26T21:08:33.193Z,15.02
2022-08-26T21:11:01.081Z,14.98
2022-08-26T21:13:42.907Z,15.00
2022-08-26T21:16:15.695Z,15.05
2022-08-26T21:18:42.851Z,15.01
2022-08-26T21:21:10.567Z,14.84
2022-08-26T21:23:37.951Z,15.09
2022-08-26T21:26:07.168Z,15.11
2022-08-26T21:28:38.513Z,15.07
2022-08-26T21:31:11.800Z,15.20
2022-08-26T21:33:39.514Z,15.14
2022-08-26T21:36:07.385Z,15.10
2022-08-26T21:38:36.224Z,15.08
2022-08-26T21:41:07.167Z,15.18
2022-08-26T21:43:35.596Z,15.24
2022-08-26T21:46:11.474Z,15.22
2022-08-26T21:48:39.589Z,15.35
2022-08-26T21:51:06.863Z,15.23
2022-08-26T21:53:34.215Z,15.40
2022-08-26T21:56:05.141Z,15.28
2022-08-26T21:58:31.898Z,15.35
2022-08-26T22:00:58.800Z,15.22
2022-08-26T22:03:25.649Z,15.17
2022-08-26T22:05:52.907Z,15.09
2022-08-26T22:08:22.815Z,15.10
2022-08-26T22:10:55.144Z,15.03
2022-08-26T22:13:25.068Z,15.01
2022-08-26T22:15:52.325Z,15.00
2022-08-26T22:18:21.224Z,15.03
2022-08-26T22:20:48.119Z,15.01
2022-08-26T22:23:15.017Z,14.99
2022-08-26T22:25:41.849Z,14.85
2022-08-26T22:28:08.779Z,14.72
2022-08-26T22:30:36.021Z,15.10
2022-08-26T22:33:04.178Z,15.12
2022-08-26T22:35:31.362Z,14.98
2022-08-26T22:37:59.121Z,15.01
2022-08-26T22:40:26.145Z,14.95
2022-08-26T22:42:55.591Z,15.00
2022-08-26T22:45:25.443Z,15.06
2022-08-26T22:47:52.277Z,15.02
2022-08-26T22:50:19.250Z,14.92
2022-08-26T22:52:46.107Z,14.86
2022-08-26T22:55:13.012Z,14.99
2022-08-26T22:57:39.940Z,14.94
2022-08-26T23:00:07.523Z,15.05
2022-08-26T23:02:38.478Z,15.00
2022-08-26T23:05:06.823Z,15.05
2022-08-26T23:07:34.349Z,14.81
2022-08-26T23:10:01.492Z,14.78
2022-08-26T23:12:28.290Z,14.84
2022-08-26T23:14:55.312Z,14.83
2022-08-26T23:17:22.187Z,14.81
2022-08-26T23:19:49.114Z,15.00
2022-08-26T23:22:17.507Z,14.99
2022-08-26T23:24:44.485Z,14.99
2022-08-26T23:27:11.833Z,14.82
2022-08-26T23:29:39.713Z,14.81
2022-08-26T23:32:06.660Z,14.81
2022-08-26T23:34:52.116Z,14.76
2022-08-26T23:37:19.732Z,14.81
2022-08-26T23:39:47.705Z,14.68
2022-08-26T23:42:14.887Z,14.68
2022-08-26T23:44:41.763Z,14.72
2022-08-26T23:47:08.796Z,14.74
2022-08-26T23:49:36.163Z,14.75
2022-08-26T23:52:23.540Z,14.72
2022-08-26T23:54:51.066Z,14.63
2022-08-26T23:57:19.231Z,14.75
2022-08-26T23:59:46.458Z,14.68
